sensor_id;sensor_type;location;lat;lon;timestamp;pressure;altitude;pressure_sealevel;temperature;humidity
13420;BME280;6781;58.440;15.470;2022-09-09T00:01:40;101392.16;;;8.81;100.00
13420;BME280;6781;58.440;15.470;2022-09-09T00:04:26;101341.91;;;8.57;100.00
13420;BME280;6781;58.440;15.470;2022-09-09T00:07:03;101348.16;;;8.67;100.00
13420;BME280;6781;58.440;15.470;2022-09-09T00:09:38;101256.47;;;8.14;100.00
13420;BME280;6781;58.440;15.470;2022-09-09T00:12:11;101392.16;;;8.81;100.00
13420;BME280;6781;58.440;15.470;2022-09-09T00:14:47;101362.44;;;8.44;100.00
13420;BME280;6781;58.440;15.470;2022-09-09T00:17:26;101387.25;;;8.62;100.00
13420;BME280;6781;58.440;15.470;2022-09-09T00:20:03;101074.84;;;6.81;100.00
13420;BME280;6781;58.440;15.470;2022-09-09T00:22:40;101380.84;;;8.68;100.00
13420;BME280;6781;58.440;15.470;2022-09-09T00:25:14;101366.81;;;8.72;100.00
13420;BME280;6781;58.440;15.470;2022-09-09T00:27:47;101132.75;;;7.05;100.00
13420;BME280;6781;58.440;15.470;2022-09-09T00:30:16;101152.78;;;7.32;100.00
13420;BME280;6781;58.440;15.470;2022-09-09T00:33:10;101085.16;;;6.81;100.00
13420;BME280;6781;58.440;15.470;2022-09-09T00:35:58;101080.44;;;7.03;100.00
13420;BME280;6781;58.440;15.470;2022-09-09T00:38:42;101248.66;;;8.15;100.00
13420;BME280;6781;58.440;15.470;2022-09-09T00:41:33;101091.38;;;7.23;100.00
13420;BME280;6781;58.440;15.470;2022-09-09T02:09:58;101048.53;;;7.78;100.00
13420;BME280;6781;58.440;15.470;2022-09-09T02:12:45;101019.94;;;7.81;100.00
13420;BME280;6781;58.440;15.470;2022-09-09T02:15:43;101032.38;;;7.75;100.00
13420;BME280;6781;58.440;15.470;2022-09-09T02:18:44;101224.34;;;9.18;100.00
13420;BME280;6781;58.440;15.470;2022-09-09T02:21:30;101065.50;;;8.11;100.00
13420;BME280;6781;58.440;15.470;2022-09-09T02:24:46;101032.47;;;7.88;100.00
13420;BME280;6781;58.440;15.470;2022-09-09T04:42:20;101022.50;;;9.18;100.00
13420;BME280;6781;58.440;15.470;2022-09-09T04:45:00;100960.97;;;8.83;100.00
13420;BME280;6781;58.440;15.470;2022-09-09T04:47:41;100984.34;;;8.81;100.00
13420;BME280;6781;58.440;15.470;2022-09-09T04:50:22;100955.00;;;8.95;100.00
13420;BME280;6781;58.440;15.470;2022-09-09T04:53:09;100948.66;;;8.87;100.00
13420;BME280;6781;58.440;15.470;2022-09-09T04:55:49;101097.31;;;9.60;100.00
13420;BME280;6781;58.440;15.470;2022-09-09T05:49:51;101105.22;;;10.22;100.00
13420;BME280;6781;58.440;15.470;2022-09-09T05:52:21;100944.66;;;9.46;100.00
13420;BME280;6781;58.440;15.470;2022-09-09T05:55:02;100949.81;;;9.46;100.00
13420;BME280;6781;58.440;15.470;2022-09-09T06:40:09;100946.00;;;10.49;100.00
13420;BME280;6781;58.440;15.470;2022-09-09T06:42:36;101190.34;;;12.08;100.00
13420;BME280;6781;58.440;15.470;2022-09-09T06:45:14;101005.91;;;11.16;100.00
13420;BME280;6781;58.440;15.470;2022-09-09T06:47:43;101065.13;;;11.57;100.00
13420;BME280;6781;58.440;15.470;2022-09-09T06:50:13;100930.53;;;10.71;100.00
13420;BME280;6781;58.440;15.470;2022-09-09T06:52:56;100971.63;;;10.99;100.00
13420;BME280;6781;58.440;15.470;2022-09-09T06:58:24;101006.69;;;11.62;100.00
13420;BME280;6781;58.440;15.470;2022-09-09T07:01:03;101070.03;;;12.06;100.00
13420;BME280;6781;58.440;15.470;2022-09-09T07:03:33;100914.09;;;11.17;100.00
13420;BME280;6781;58.440;15.470;2022-09-09T07:06:18;101030.22;;;11.94;100.00
13420;BME280;6781;58.440;15.470;2022-09-09T07:09:03;101079.69;;;12.37;100.00
13420;BME280;6781;58.440;15.470;2022-09-09T07:11:45;100909.38;;;11.44;100.00
13420;BME280;6781;58.440;15.470;2022-09-09T07:14:30;101174.66;;;13.09;100.00
13420;BME280;6781;58.440;15.470;2022-09-09T07:17:11;100948.13;;;11.81;100.00
13420;BME280;6781;58.440;15.470;2022-09-09T07:20:03;100904.66;;;11.60;100.00
13420;BME280;6781;58.440;15.470;2022-09-09T07:22:44;101181.72;;;13.29;100.00
13420;BME280;6781;58.440;15.470;2022-09-09T07:25:25;100908.53;;;11.88;100.00
13420;BME280;6781;58.440;15.470;2022-09-09T07:28:06;100947.28;;;11.91;100.00
13420;BME280;6781;58.440;15.470;2022-09-09T07:34:05;101175.47;;;13.52;100.00
13420;BME280;6781;58.440;15.470;2022-09-09T07:36:46;100911.19;;;12.09;100.00
13420;BME280;6781;58.440;15.470;2022-09-09T07:39:26;101054.66;;;13.00;100.00
13420;BME280;6781;58.440;15.470;2022-09-09T07:42:09;100948.09;;;12.35;100.00
13420;BME280;6781;58.440;15.470;2022-09-09T07:44:50;100908.81;;;12.38;100.00
13420;BME280;6781;58.440;15.470;2022-09-09T07:47:31;100925.72;;;12.44;100.00
13420;BME280;6781;58.440;15.470;2022-09-09T08:21:52;101016.63;;;13.91;100.00
13420;BME280;6781;58.440;15.470;2022-09-09T08:24:33;101134.84;;;14.62;100.00
13420;BME280;6781;58.440;15.470;2022-09-09T08:27:14;101140.06;;;14.62;100.00
13420;BME280;6781;58.440;15.470;2022-09-09T08:29:55;100944.09;;;13.56;100.00
13420;BME280;6781;58.440;15.470;2022-09-09T08:32:23;101029.19;;;14.07;100.00
13420;BME280;6781;58.440;15.470;2022-09-09T08:34:51;101124.69;;;14.59;100.00
13420;BME280;6781;58.440;15.470;2022-09-09T08:37:24;100989.03;;;13.79;100.00
13420;BME280;6781;58.440;15.470;2022-09-09T08:40:06;101116.31;;;14.65;100.00
13420;BME280;6781;58.440;15.470;2022-09-09T08:42:51;100975.47;;;13.94;100.00
13420;BME280;6781;58.440;15.470;2022-09-09T08:45:28;100952.25;;;13.91;100.00
13420;BME280;6781;58.440;15.470;2022-09-09T08:48:08;101044.22;;;14.33;100.00
13420;BME280;6781;58.440;15.470;2022-09-09T08:50:42;101092.13;;;14.63;100.00
13420;BME280;6781;58.440;15.470;2022-09-09T08:53:17;101101.91;;;14.80;100.00
13420;BME280;6781;58.440;15.470;2022-09-09T08:56:02;101091.00;;;14.56;100.00
13420;BME280;6781;58.440;15.470;2022-09-09T08:58:33;101061.94;;;14.40;100.00
13420;BME280;6781;58.440;15.470;2022-09-09T09:01:28;101028.28;;;14.37;100.00
13420;BME280;6781;58.440;15.470;2022-09-09T09:04:07;100957.63;;;13.99;100.00
13420;BME280;6781;58.440;15.470;2022-09-09T09:07:02;101027.38;;;14.57;100.00
13420;BME280;6781;58.440;15.470;2022-09-09T09:09:48;100978.41;;;14.20;100.00
13420;BME280;6781;58.440;15.470;2022-09-09T09:12:27;101104.69;;;15.17;100.00
13420;BME280;6781;58.440;15.470;2022-09-09T09:14:59;101112.94;;;15.13;100.00
13420;BME280;6781;58.440;15.470;2022-09-09T09:17:40;101077.44;;;15.01;100.00
13420;BME280;6781;58.440;15.470;2022-09-09T09:20:12;101037.16;;;14.74;100.00
13420;BME280;6781;58.440;15.470;2022-09-09T09:22:55;100877.63;;;13.81;100.00
13420;BME280;6781;58.440;15.470;2022-09-09T09:32:18;101080.88;;;15.20;100.00
13420;BME280;6781;58.440;15.470;2022-09-09T09:34:49;100976.00;;;14.57;100.00
13420;BME280;6781;58.440;15.470;2022-09-09T09:37:34;101125.84;;;15.53;100.00
13420;BME280;6781;58.440;15.470;2022-09-09T09:40:11;101102.13;;;15.74;100.00
13420;BME280;6781;58.440;15.470;2022-09-09T09:42:48;101087.88;;;15.58;100.00
13420;BME280;6781;58.440;15.470;2022-09-09T09:45:33;101092.78;;;15.61;100.00
13420;BME280;6781;58.440;15.470;2022-09-09T09:51:18;100940.78;;;14.90;100.00
13420;BME280;6781;58.440;15.470;2022-09-09T09:53:48;101111.13;;;15.99;100.00
13420;BME280;6781;58.440;15.470;2022-09-09T09:56:26;101079.50;;;16.19;100.00
13420;BME280;6781;58.440;15.470;2022-09-09T09:58:54;101032.09;;;15.95;100.00
13420;BME280;6781;58.440;15.470;2022-09-09T10:01:35;100940.88;;;15.18;100.00
13420;BME280;6781;58.440;15.470;2022-09-09T10:04:15;101029.16;;;15.71;100.00
13420;BME280;6781;58.440;15.470;2022-09-09T10:06:50;100943.41;;;15.37;100.00
13420;BME280;6781;58.440;15.470;2022-09-09T10:09:24;101074.31;;;16.37;100.00
13420;BME280;6781;58.440;15.470;2022-09-09T10:11:57;101078.63;;;16.28;100.00
13420;BME280;6781;58.440;15.470;2022-09-09T10:14:46;100966.44;;;15.61;100.00
13420;BME280;6781;58.440;15.470;2022-09-09T10:17:36;101045.75;;;16.16;100.00
13420;BME280;6781;58.440;15.470;2022-09-09T10:20:19;100994.00;;;15.83;100.00
13420;BME280;6781;58.440;15.470;2022-09-09T10:22:52;100972.84;;;16.04;100.00
13420;BME280;6781;58.440;15.470;2022-09-09T10:25:43;101025.66;;;16.17;100.00
13420;BME280;6781;58.440;15.470;2022-09-09T10:28:36;100976.47;;;15.93;100.00
13420;BME280;6781;58.440;15.470;2022-09-09T10:31:15;101009.81;;;16.18;100.00
13420;BME280;6781;58.440;15.470;2022-09-09T10:33:51;101065.50;;;16.83;100.00
13420;BME280;6781;58.440;15.470;2022-09-09T10:36:24;101055.84;;;16.39;100.00
13420;BME280;6781;58.440;15.470;2022-09-09T10:39:03;101072.53;;;16.55;100.00
13420;BME280;6781;58.440;15.470;2022-09-09T10:41:44;101012.38;;;16.28;100.00
13420;BME280;6781;58.440;15.470;2022-09-09T10:44:33;100968.06;;;15.72;100.00
13420;BME280;6781;58.440;15.470;2022-09-09T10:47:29;101013.28;;;16.09;100.00
13420;BME280;6781;58.440;15.470;2022-09-09T10:50:48;101050.00;;;16.45;100.00
13420;BME280;6781;58.440;15.470;2022-09-09T10:53:36;101073.09;;;16.32;100.00
13420;BME280;6781;58.440;15.470;2022-09-09T10:59:41;101060.94;;;16.13;100.00
13420;BME280;6781;58.440;15.470;2022-09-09T11:02:14;100937.06;;;15.77;100.00
13420;BME280;6781;58.440;15.470;2022-09-09T11:04:50;101105.03;;;17.08;100.00
13420;BME280;6781;58.440;15.470;2022-09-09T11:07:28;101007.53;;;16.86;100.00
13420;BME280;6781;58.440;15.470;2022-09-09T11:10:02;100962.47;;;16.30;100.00
13420;BME280;6781;58.440;15.470;2022-09-09T11:12:34;100809.25;;;15.19;100.00
13420;BME280;6781;58.440;15.470;2022-09-09T11:15:15;100930.91;;;16.13;100.00
13420;BME280;6781;58.440;15.470;2022-09-09T11:17:46;100993.31;;;16.53;100.00
13420;BME280;6781;58.440;15.470;2022-09-09T11:20:15;100929.47;;;16.01;100.00
13420;BME280;6781;58.440;15.470;2022-09-09T11:22:50;101077.91;;;16.81;100.00
13420;BME280;6781;58.440;15.470;2022-09-09T11:25:22;100931.16;;;15.75;100.00
13420;BME280;6781;58.440;15.470;2022-09-09T11:28:05;100945.66;;;15.87;100.00
13420;BME280;6781;58.440;15.470;2022-09-09T11:30:46;101087.25;;;16.66;100.00
13420;BME280;6781;58.440;15.470;2022-09-09T11:39:41;100894.53;;;15.75;100.00
13420;BME280;6781;58.440;15.470;2022-09-09T11:42:22;101056.66;;;16.84;100.00
13420;BME280;6781;58.440;15.470;2022-09-09T11:44:53;101077.22;;;17.15;100.00
13420;BME280;6781;58.440;15.470;2022-09-09T11:47:36;100920.28;;;16.33;100.00
13420;BME280;6781;58.440;15.470;2022-09-09T11:50:09;100990.78;;;16.79;100.00
13420;BME280;6781;58.440;15.470;2022-09-09T11:52:39;100814.97;;;15.59;100.00
13420;BME280;6781;58.440;15.470;2022-09-09T11:55:26;100938.84;;;16.21;100.00
13420;BME280;6781;58.440;15.470;2022-09-09T11:57:58;100991.50;;;16.54;100.00
13420;BME280;6781;58.440;15.470;2022-09-09T12:00:34;100872.47;;;15.77;100.00
13420;BME280;6781;58.440;15.470;2022-09-09T12:55:54;101075.13;;;17.44;100.00
13420;BME280;6781;58.440;15.470;2022-09-09T12:58:38;100834.00;;;16.05;100.00
13420;BME280;6781;58.440;15.470;2022-09-09T13:01:22;100958.00;;;16.75;100.00
13420;BME280;6781;58.440;15.470;2022-09-09T13:04:19;100996.06;;;17.31;100.00
13420;BME280;6781;58.440;15.470;2022-09-09T13:07:06;101049.75;;;17.71;100.00
13420;BME280;6781;58.440;15.470;2022-09-09T13:09:37;101007.47;;;17.22;100.00
13420;BME280;6781;58.440;15.470;2022-09-09T13:12:18;101034.09;;;17.35;100.00
13420;BME280;6781;58.440;15.470;2022-09-09T13:14:53;100847.00;;;16.33;100.00
13420;BME280;6781;58.440;15.470;2022-09-09T13:17:34;101042.78;;;17.36;100.00
13420;BME280;6781;58.440;15.470;2022-09-09T13:20:16;100923.13;;;16.57;100.00
13420;BME280;6781;58.440;15.470;2022-09-09T13:22:58;101076.94;;;17.18;100.00
13420;BME280;6781;58.440;15.470;2022-09-09T13:25:29;100842.50;;;15.72;100.00
13420;BME280;6781;58.440;15.470;2022-09-09T13:28:31;101070.88;;;17.00;100.00
13420;BME280;6781;58.440;15.470;2022-09-09T13:31:20;100939.13;;;16.18;100.00
13420;BME280;6781;58.440;15.470;2022-09-09T13:34:11;100993.47;;;16.52;100.00
13420;BME280;6781;58.440;15.470;2022-09-09T13:36:40;100954.66;;;16.65;100.00
13420;BME280;6781;58.440;15.470;2022-09-09T13:39:22;100963.53;;;16.37;100.00
13420;BME280;6781;58.440;15.470;2022-09-09T13:42:03;100961.81;;;16.63;100.00
13420;BME280;6781;58.440;15.470;2022-09-09T13:45:02;101041.38;;;17.49;100.00
13420;BME280;6781;58.440;15.470;2022-09-09T13:47:43;100851.72;;;16.99;100.00
13420;BME280;6781;58.440;15.470;2022-09-09T13:50:19;100940.84;;;17.41;100.00
13420;BME280;6781;58.440;15.470;2022-09-09T13:53:00;100918.28;;;17.48;100.00
13420;BME280;6781;58.440;15.470;2022-09-09T13:55:47;100900.56;;;17.08;100.00
13420;BME280;6781;58.440;15.470;2022-09-09T13:58:20;101022.75;;;17.86;100.00
13420;BME280;6781;58.440;15.470;2022-09-09T14:01:18;101043.50;;;18.06;100.00
13420;BME280;6781;58.440;15.470;2022-09-09T14:03:46;101042.06;;;18.11;100.00
13420;BME280;6781;58.440;15.470;2022-09-09T14:06:16;101018.25;;;17.71;100.00
13420;BME280;6781;58.440;15.470;2022-09-09T14:08:57;100901.75;;;17.13;100.00
13420;BME280;6781;58.440;15.470;2022-09-09T14:11:38;100891.88;;;16.81;100.00
13420;BME280;6781;58.440;15.470;2022-09-09T14:14:18;100892.66;;;16.74;100.00
13420;BME280;6781;58.440;15.470;2022-09-09T14:17:09;100838.63;;;16.29;100.00
13420;BME280;6781;58.440;15.470;2022-09-09T14:19:50;101015.50;;;17.20;100.00
13420;BME280;6781;58.440;15.470;2022-09-09T14:22:21;101045.31;;;17.19;100.00
13420;BME280;6781;58.440;15.470;2022-09-09T14:24:49;100909.13;;;16.48;100.00
13420;BME280;6781;58.440;15.470;2022-09-09T14:27:30;100898.59;;;16.22;100.00
13420;BME280;6781;58.440;15.470;2022-09-09T14:30:12;100792.06;;;15.44;100.00
13420;BME280;6781;58.440;15.470;2022-09-09T14:48:32;101004.94;;;16.23;100.00
13420;BME280;6781;58.440;15.470;2022-09-09T14:51:05;100962.72;;;15.91;100.00
13420;BME280;6781;58.440;15.470;2022-09-09T14:53:46;100829.78;;;15.14;100.00
13420;BME280;6781;58.440;15.470;2022-09-09T14:56:29;100952.72;;;16.04;100.00
13420;BME280;6781;58.440;15.470;2022-09-09T14:58:58;100835.38;;;15.19;100.00
13420;BME280;6781;58.440;15.470;2022-09-09T15:01:39;100935.78;;;15.81;100.00
13420;BME280;6781;58.440;15.470;2022-09-09T15:04:17;100827.34;;;15.03;100.00
13420;BME280;6781;58.440;15.470;2022-09-09T15:06:58;100902.22;;;15.58;100.00
13420;BME280;6781;58.440;15.470;2022-09-09T15:09:39;100827.28;;;14.85;100.00
13420;BME280;6781;58.440;15.470;2022-09-09T15:12:20;100843.09;;;14.74;100.00
13420;BME280;6781;58.440;15.470;2022-09-09T15:15:02;101048.88;;;16.02;100.00
13420;BME280;6781;58.440;15.470;2022-09-09T15:17:43;100814.69;;;14.61;100.00
13420;BME280;6781;58.440;15.470;2022-09-09T15:20:48;100868.78;;;14.78;100.00
13420;BME280;6781;58.440;15.470;2022-09-09T15:23:31;101046.66;;;15.70;100.00
13420;BME280;6781;58.440;15.470;2022-09-09T15:26:02;100964.38;;;15.18;100.00
13420;BME280;6781;58.440;15.470;2022-09-09T15:28:44;100897.41;;;14.70;100.00
13420;BME280;6781;58.440;15.470;2022-09-09T15:31:26;101058.78;;;15.61;100.00
13420;BME280;6781;58.440;15.470;2022-09-09T15:34:08;101047.09;;;15.66;100.00
13420;BME280;6781;58.440;15.470;2022-09-09T15:46:39;101048.72;;;15.67;100.00
13420;BME280;6781;58.440;15.470;2022-09-09T15:49:24;101049.88;;;15.54;100.00
13420;BME280;6781;58.440;15.470;2022-09-09T15:52:08;101037.75;;;15.53;100.00
13420;BME280;6781;58.440;15.470;2022-09-09T15:54:49;100996.97;;;15.23;100.00
13420;BME280;6781;58.440;15.470;2022-09-09T15:57:30;101018.13;;;15.40;100.00
13420;BME280;6781;58.440;15.470;2022-09-09T16:00:12;101045.50;;;15.36;100.00
13420;BME280;6781;58.440;15.470;2022-09-09T16:24:51;100994.56;;;14.64;100.00
13420;BME280;6781;58.440;15.470;2022-09-09T16:27:33;100835.19;;;13.59;100.00
13420;BME280;6781;58.440;15.470;2022-09-09T16:30:14;100927.88;;;14.12;100.00
13420;BME280;6781;58.440;15.470;2022-09-09T16:32:54;101067.81;;;15.01;100.00
13420;BME280;6781;58.440;15.470;2022-09-09T16:35:36;100945.44;;;14.19;100.00
13420;BME280;6781;58.440;15.470;2022-09-09T16:38:17;100972.38;;;14.29;100.00
13420;BME280;6781;58.440;15.470;2022-09-09T16:41:14;101072.78;;;14.94;100.00
13420;BME280;6781;58.440;15.470;2022-09-09T16:43:42;100991.94;;;14.45;100.00
13420;BME280;6781;58.440;15.470;2022-09-09T16:46:24;100961.38;;;14.16;100.00
13420;BME280;6781;58.440;15.470;2022-09-09T16:49:07;101075.78;;;14.90;100.00
13420;BME280;6781;58.440;15.470;2022-09-09T16:51:49;100842.69;;;13.43;100.00
13420;BME280;6781;58.440;15.470;2022-09-09T16:54:26;100995.88;;;14.29;100.00
13420;BME280;6781;58.440;15.470;2022-09-09T16:57:10;100942.53;;;14.03;100.00
13420;BME280;6781;58.440;15.470;2022-09-09T16:59:42;100861.63;;;13.45;100.00
13420;BME280;6781;58.440;15.470;2022-09-09T17:02:26;101018.19;;;14.53;100.00
13420;BME280;6781;58.440;15.470;2022-09-09T17:05:07;101066.16;;;14.71;100.00
13420;BME280;6781;58.440;15.470;2022-09-09T17:07:45;100922.06;;;13.89;100.00
13420;BME280;6781;58.440;15.470;2022-09-09T17:10:27;101087.63;;;14.84;100.00
13420;BME280;6781;58.440;15.470;2022-09-09T17:13:16;100838.13;;;13.26;100.00
13420;BME280;6781;58.440;15.470;2022-09-09T17:15:57;100842.38;;;13.27;100.00
13420;BME280;6781;58.440;15.470;2022-09-09T17:18:37;100825.63;;;13.20;100.00
13420;BME280;6781;58.440;15.470;2022-09-09T17:21:20;101043.88;;;14.48;100.00
13420;BME280;6781;58.440;15.470;2022-09-09T17:24:01;100909.00;;;13.70;100.00
13420;BME280;6781;58.440;15.470;2022-09-09T17:26:32;100825.63;;;13.20;100.00
13420;BME280;6781;58.440;15.470;2022-09-09T18:42:35;101103.63;;;14.20;100.00
13420;BME280;6781;58.440;15.470;2022-09-09T18:45:18;100958.13;;;13.34;100.00
13420;BME280;6781;58.440;15.470;2022-09-09T18:47:59;101020.66;;;13.64;100.00
13420;BME280;6781;58.440;15.470;2022-09-09T18:50:40;100923.19;;;12.95;100.00
13420;BME280;6781;58.440;15.470;2022-09-09T18:53:20;100867.16;;;12.70;100.00
13420;BME280;6781;58.440;15.470;2022-09-09T18:56:04;100884.72;;;12.57;100.00
13420;BME280;6781;58.440;15.470;2022-09-09T19:21:50;101032.13;;;13.52;100.00
13420;BME280;6781;58.440;15.470;2022-09-09T19:24:22;100843.34;;;12.33;100.00
13420;BME280;6781;58.440;15.470;2022-09-09T19:27:05;100887.13;;;12.49;100.00
13420;BME280;6781;58.440;15.470;2022-09-09T19:29:47;100882.31;;;12.65;100.00
13420;BME280;6781;58.440;15.470;2022-09-09T19:32:28;100890.75;;;12.57;100.00
13420;BME280;6781;58.440;15.470;2022-09-09T19:35:09;100962.63;;;13.11;100.00
13420;BME280;6781;58.440;15.470;2022-09-09T22:03:54;101000.91;;;12.47;100.00
13420;BME280;6781;58.440;15.470;2022-09-09T22:06:21;101075.53;;;12.89;100.00
13420;BME280;6781;58.440;15.470;2022-09-09T22:09:02;101136.03;;;13.25;100.00
13420;BME280;6781;58.440;15.470;2022-09-09T22:11:43;100993.72;;;12.39;100.00
13420;BME280;6781;58.440;15.470;2022-09-09T22:14:19;101038.03;;;12.49;100.00
13420;BME280;6781;58.440;15.470;2022-09-09T22:17:00;101082.84;;;12.95;100.00
13420;BME280;6781;58.440;15.470;2022-09-09T22:23:10;101150.16;;;13.43;100.00
13420;BME280;6781;58.440;15.470;2022-09-09T22:25:39;101136.03;;;13.25;100.00
13420;BME280;6781;58.440;15.470;2022-09-09T22:28:22;101020.28;;;12.54;100.00
13420;BME280;6781;58.440;15.470;2022-09-09T22:31:04;100923.66;;;11.94;100.00
13420;BME280;6781;58.440;15.470;2022-09-09T22:33:33;101002.97;;;12.64;100.00
13420;BME280;6781;58.440;15.470;2022-09-09T22:36:14;101062.50;;;12.89;100.00
13420;BME280;6781;58.440;15.470;2022-09-09T23:01:25;101136.44;;;13.41;100.00
13420;BME280;6781;58.440;15.470;2022-09-09T23:04:07;101081.44;;;12.91;100.00
13420;BME280;6781;58.440;15.470;2022-09-09T23:06:51;100925.19;;;11.86;100.00
13420;BME280;6781;58.440;15.470;2022-09-09T23:09:32;100928.97;;;11.82;100.00
13420;BME280;6781;58.440;15.470;2022-09-09T23:12:13;100962.03;;;12.02;100.00
13420;BME280;6781;58.440;15.470;2022-09-09T23:14:53;100920.69;;;11.77;100.00
13420;BME280;6781;58.440;15.470;2022-09-09T23:27:10;101167.22;;;12.93;100.00
13420;BME280;6781;58.440;15.470;2022-09-09T23:29:51;101088.44;;;12.36;100.00
13420;BME280;6781;58.440;15.470;2022-09-09T23:32:32;101030.34;;;11.93;100.00
13420;BME280;6781;58.440;15.470;2022-09-09T23:34:59;100933.81;;;11.30;100.00
13420;BME280;6781;58.440;15.470;2022-09-09T23:37:40;101203.94;;;12.90;100.00
13420;BME280;6781;58.440;15.470;2022-09-09T23:40:21;101188.09;;;12.70;100.00
13420;BME280;6781;58.440;15.470;2022-09-09T23:43:03;101202.88;;;12.70;100.00
13420;BME280;6781;58.440;15.470;2022-09-09T23:46:02;101146.13;;;12.30;100.00
13420;BME280;6781;58.440;15.470;2022-09-09T23:48:30;100941.69;;;11.06;100.00
13420;BME280;6781;58.440;15.470;2022-09-09T23:51:02;101210.81;;;12.68;100.00
13420;BME280;6781;58.440;15.470;2022-09-09T23:53:44;101126.75;;;12.23;100.00
13420;BME280;6781;58.440;15.470;2022-09-09T23:56:27;100984.69;;;11.33;100.00
13420;BME280;6781;58.440;15.470;2022-09-09T23:59:12;101202.41;;;12.76;100.00
